sensor_id;sensor_type;location;lat;lon;timestamp;P1;durP1;ratioP1;P2;durP2;ratioP2
11539;SDS011;5826;54.756;9.192;2023-11-21T00:01:52;5.32;;;4.80;;
11539;SDS011;5826;54.756;9.192;2023-11-21T00:04:18;5.93;;;4.88;;
11539;SDS011;5826;54.756;9.192;2023-11-21T00:06:43;6.13;;;4.72;;
11539;SDS011;5826;54.756;9.192;2023-11-21T00:09:11;7.65;;;5.43;;
11539;SDS011;5826;54.756;9.192;2023-11-21T00:11:38;5.18;;;4.60;;
11539;SDS011;5826;54.756;9.192;2023-11-21T00:14:03;5.88;;;5.28;;
11539;SDS011;5826;54.756;9.192;2023-11-21T00:16:29;5.32;;;4.82;;
11539;SDS011;5826;54.756;9.192;2023-11-21T00:18:55;9.88;;;6.43;;
11539;SDS011;5826;54.756;9.192;2023-11-21T00:21:20;6.82;;;5.57;;
11539;SDS011;5826;54.756;9.192;2023-11-21T00:23:45;7.70;;;6.47;;
11539;SDS011;5826;54.756;9.192;2023-11-21T00:26:11;8.45;;;6.45;;
11539;SDS011;5826;54.756;9.192;2023-11-21T00:28:36;7.88;;;6.38;;
11539;SDS011;5826;54.756;9.192;2023-11-21T00:31:02;5.15;;;4.65;;
11539;SDS011;5826;54.756;9.192;2023-11-21T00:33:29;8.25;;;7.18;;
11539;SDS011;5826;54.756;9.192;2023-11-21T00:35:54;7.75;;;6.80;;
11539;SDS011;5826;54.756;9.192;2023-11-21T00:38:20;7.82;;;7.03;;
11539;SDS011;5826;54.756;9.192;2023-11-21T00:40:45;9.88;;;7.93;;
11539;SDS011;5826;54.756;9.192;2023-11-21T00:43:11;8.25;;;7.05;;
11539;SDS011;5826;54.756;9.192;2023-11-21T00:45:36;8.15;;;6.22;;
11539;SDS011;5826;54.756;9.192;2023-11-21T00:48:02;6.80;;;5.65;;
11539;SDS011;5826;54.756;9.192;2023-11-21T00:50:29;5.43;;;4.85;;
11539;SDS011;5826;54.756;9.192;2023-11-21T00:52:55;5.80;;;5.15;;
11539;SDS011;5826;54.756;9.192;2023-11-21T00:55:21;7.10;;;6.18;;
11539;SDS011;5826;54.756;9.192;2023-11-21T00:57:47;8.25;;;5.30;;
11539;SDS011;5826;54.756;9.192;2023-11-21T01:00:12;5.40;;;4.30;;
11539;SDS011;5826;54.756;9.192;2023-11-21T01:02:41;7.95;;;5.78;;
11539;SDS011;5826;54.756;9.192;2023-11-21T01:05:10;5.55;;;4.38;;
11539;SDS011;5826;54.756;9.192;2023-11-21T01:07:36;7.13;;;5.45;;
11539;SDS011;5826;54.756;9.192;2023-11-21T01:10:02;8.85;;;6.28;;
11539;SDS011;5826;54.756;9.192;2023-11-21T01:12:28;6.95;;;5.35;;
11539;SDS011;5826;54.756;9.192;2023-11-21T01:14:54;6.38;;;4.82;;
11539;SDS011;5826;54.756;9.192;2023-11-21T01:17:19;7.45;;;5.95;;
11539;SDS011;5826;54.756;9.192;2023-11-21T01:19:47;8.40;;;6.18;;
11539;SDS011;5826;54.756;9.192;2023-11-21T01:22:13;7.45;;;5.50;;
11539;SDS011;5826;54.756;9.192;2023-11-21T01:24:38;7.13;;;5.45;;
11539;SDS011;5826;54.756;9.192;2023-11-21T01:27:04;6.50;;;4.70;;
11539;SDS011;5826;54.756;9.192;2023-11-21T01:29:29;6.57;;;5.13;;
11539;SDS011;5826;54.756;9.192;2023-11-21T01:31:55;5.22;;;4.72;;
11539;SDS011;5826;54.756;9.192;2023-11-21T01:34:22;6.32;;;4.75;;
11539;SDS011;5826;54.756;9.192;2023-11-21T01:36:48;6.22;;;5.13;;
11539;SDS011;5826;54.756;9.192;2023-11-21T01:39:14;5.88;;;4.78;;
11539;SDS011;5826;54.756;9.192;2023-11-21T01:41:41;9.10;;;5.40;;
11539;SDS011;5826;54.756;9.192;2023-11-21T01:44:09;5.18;;;4.25;;
11539;SDS011;5826;54.756;9.192;2023-11-21T01:46:35;6.55;;;4.70;;
11539;SDS011;5826;54.756;9.192;2023-11-21T01:49:00;4.82;;;3.85;;
11539;SDS011;5826;54.756;9.192;2023-11-21T01:51:26;5.65;;;3.95;;
11539;SDS011;5826;54.756;9.192;2023-11-21T01:53:52;5.68;;;4.68;;
11539;SDS011;5826;54.756;9.192;2023-11-21T01:56:17;5.07;;;4.43;;
11539;SDS011;5826;54.756;9.192;2023-11-21T01:58:43;5.75;;;4.40;;
11539;SDS011;5826;54.756;9.192;2023-11-21T02:01:09;7.10;;;5.60;;
11539;SDS011;5826;54.756;9.192;2023-11-21T02:03:35;7.90;;;5.70;;
11539;SDS011;5826;54.756;9.192;2023-11-21T02:06:01;6.32;;;4.82;;
11539;SDS011;5826;54.756;9.192;2023-11-21T02:08:26;6.00;;;4.78;;
11539;SDS011;5826;54.756;9.192;2023-11-21T02:10:52;7.55;;;5.38;;
11539;SDS011;5826;54.756;9.192;2023-11-21T02:13:17;7.47;;;4.93;;
11539;SDS011;5826;54.756;9.192;2023-11-21T02:15:43;6.32;;;4.18;;
11539;SDS011;5826;54.756;9.192;2023-11-21T02:18:09;4.93;;;4.43;;
11539;SDS011;5826;54.756;9.192;2023-11-21T02:20:36;5.30;;;4.28;;
11539;SDS011;5826;54.756;9.192;2023-11-21T02:23:03;5.20;;;4.20;;
11539;SDS011;5826;54.756;9.192;2023-11-21T02:25:30;5.95;;;4.72;;
11539;SDS011;5826;54.756;9.192;2023-11-21T02:27:57;5.65;;;4.57;;
11539;SDS011;5826;54.756;9.192;2023-11-21T02:30:27;5.40;;;4.10;;
11539;SDS011;5826;54.756;9.192;2023-11-21T02:32:53;5.22;;;4.07;;
11539;SDS011;5826;54.756;9.192;2023-11-21T02:35:22;5.10;;;4.28;;
11539;SDS011;5826;54.756;9.192;2023-11-21T02:37:48;6.38;;;4.63;;
11539;SDS011;5826;54.756;9.192;2023-11-21T02:40:14;5.47;;;3.80;;
11539;SDS011;5826;54.756;9.192;2023-11-21T02:42:43;4.97;;;3.97;;
11539;SDS011;5826;54.756;9.192;2023-11-21T02:45:09;6.25;;;4.25;;
11539;SDS011;5826;54.756;9.192;2023-11-21T02:47:38;6.25;;;4.80;;
11539;SDS011;5826;54.756;9.192;2023-11-21T02:50:04;7.28;;;5.47;;
11539;SDS011;5826;54.756;9.192;2023-11-21T02:52:32;5.78;;;4.10;;
11539;SDS011;5826;54.756;9.192;2023-11-21T02:54:58;6.18;;;4.90;;
11539;SDS011;5826;54.756;9.192;2023-11-21T02:57:24;4.95;;;4.28;;
11539;SDS011;5826;54.756;9.192;2023-11-21T02:59:49;4.10;;;3.60;;
11539;SDS011;5826;54.756;9.192;2023-11-21T03:02:15;5.45;;;4.15;;
11539;SDS011;5826;54.756;9.192;2023-11-21T03:04:41;7.35;;;4.63;;
11539;SDS011;5826;54.756;9.192;2023-11-21T03:07:07;5.05;;;3.90;;
11539;SDS011;5826;54.756;9.192;2023-11-21T03:09:33;5.25;;;4.18;;
11539;SDS011;5826;54.756;9.192;2023-11-21T03:11:59;4.78;;;3.38;;
11539;SDS011;5826;54.756;9.192;2023-11-21T03:14:24;6.05;;;4.57;;
11539;SDS011;5826;54.756;9.192;2023-11-21T03:16:50;5.18;;;4.43;;
11539;SDS011;5826;54.756;9.192;2023-11-21T03:19:15;4.55;;;3.85;;
11539;SDS011;5826;54.756;9.192;2023-11-21T03:21:41;4.72;;;3.60;;
11539;SDS011;5826;54.756;9.192;2023-11-21T03:24:07;6.50;;;4.15;;
11539;SDS011;5826;54.756;9.192;2023-11-21T03:26:33;5.38;;;4.03;;
11539;SDS011;5826;54.756;9.192;2023-11-21T03:28:58;4.72;;;4.07;;
11539;SDS011;5826;54.756;9.192;2023-11-21T03:31:24;3.80;;;3.10;;
11539;SDS011;5826;54.756;9.192;2023-11-21T03:33:50;5.65;;;4.00;;
11539;SDS011;5826;54.756;9.192;2023-11-21T03:36:15;7.53;;;4.43;;
11539;SDS011;5826;54.756;9.192;2023-11-21T03:38:41;5.05;;;3.88;;
11539;SDS011;5826;54.756;9.192;2023-11-21T03:41:07;4.85;;;3.60;;
11539;SDS011;5826;54.756;9.192;2023-11-21T03:43:35;4.47;;;3.55;;
11539;SDS011;5826;54.756;9.192;2023-11-21T03:46:01;5.22;;;3.95;;
11539;SDS011;5826;54.756;9.192;2023-11-21T03:48:26;5.40;;;4.47;;
11539;SDS011;5826;54.756;9.192;2023-11-21T03:50:52;5.32;;;4.15;;
11539;SDS011;5826;54.756;9.192;2023-11-21T03:53:17;5.35;;;4.10;;
11539;SDS011;5826;54.756;9.192;2023-11-21T03:55:43;4.65;;;3.95;;
11539;SDS011;5826;54.756;9.192;2023-11-21T03:58:08;4.18;;;3.53;;
11539;SDS011;5826;54.756;9.192;2023-11-21T04:00:34;4.53;;;4.00;;
11539;SDS011;5826;54.756;9.192;2023-11-21T04:02:59;5.75;;;5.05;;
11539;SDS011;5826;54.756;9.192;2023-11-21T04:05:25;5.30;;;4.32;;
11539;SDS011;5826;54.756;9.192;2023-11-21T04:07:50;5.72;;;3.90;;
11539;SDS011;5826;54.756;9.192;2023-11-21T04:10:16;5.53;;;4.55;;
11539;SDS011;5826;54.756;9.192;2023-11-21T04:12:42;4.80;;;3.80;;
11539;SDS011;5826;54.756;9.192;2023-11-21T04:15:07;5.32;;;4.30;;
11539;SDS011;5826;54.756;9.192;2023-11-21T04:17:34;6.03;;;3.90;;
11539;SDS011;5826;54.756;9.192;2023-11-21T04:20:01;4.65;;;4.15;;
11539;SDS011;5826;54.756;9.192;2023-11-21T04:22:27;5.18;;;3.85;;
11539;SDS011;5826;54.756;9.192;2023-11-21T04:24:53;4.78;;;3.97;;
11539;SDS011;5826;54.756;9.192;2023-11-21T04:27:20;4.82;;;3.50;;
11539;SDS011;5826;54.756;9.192;2023-11-21T04:29:46;3.20;;;2.88;;
11539;SDS011;5826;54.756;9.192;2023-11-21T04:32:11;5.13;;;3.92;;
11539;SDS011;5826;54.756;9.192;2023-11-21T04:34:37;4.80;;;4.10;;
11539;SDS011;5826;54.756;9.192;2023-11-21T04:37:03;5.35;;;4.35;;
11539;SDS011;5826;54.756;9.192;2023-11-21T04:39:31;5.97;;;4.30;;
11539;SDS011;5826;54.756;9.192;2023-11-21T04:41:56;4.80;;;3.65;;
11539;SDS011;5826;54.756;9.192;2023-11-21T04:44:22;4.25;;;3.85;;
11539;SDS011;5826;54.756;9.192;2023-11-21T04:46:47;3.40;;;3.10;;
11539;SDS011;5826;54.756;9.192;2023-11-21T04:49:14;7.70;;;3.90;;
11539;SDS011;5826;54.756;9.192;2023-11-21T04:51:40;4.18;;;3.38;;
11539;SDS011;5826;54.756;9.192;2023-11-21T04:54:06;4.43;;;3.67;;
11539;SDS011;5826;54.756;9.192;2023-11-21T04:56:31;3.38;;;3.08;;
11539;SDS011;5826;54.756;9.192;2023-11-21T04:58:57;4.28;;;3.38;;
11539;SDS011;5826;54.756;9.192;2023-11-21T05:01:23;3.65;;;2.95;;
11539;SDS011;5826;54.756;9.192;2023-11-21T05:03:48;5.30;;;3.65;;
11539;SDS011;5826;54.756;9.192;2023-11-21T05:06:14;3.92;;;3.45;;
11539;SDS011;5826;54.756;9.192;2023-11-21T05:08:40;3.75;;;3.30;;
11539;SDS011;5826;54.756;9.192;2023-11-21T05:11:05;4.82;;;3.75;;
11539;SDS011;5826;54.756;9.192;2023-11-21T05:13:33;3.63;;;3.00;;
11539;SDS011;5826;54.756;9.192;2023-11-21T05:15:59;4.55;;;3.35;;
11539;SDS011;5826;54.756;9.192;2023-11-21T05:18:25;4.13;;;3.63;;
11539;SDS011;5826;54.756;9.192;2023-11-21T05:20:52;4.40;;;3.78;;
11539;SDS011;5826;54.756;9.192;2023-11-21T05:23:18;4.15;;;3.33;;
11539;SDS011;5826;54.756;9.192;2023-11-21T05:25:44;6.10;;;3.40;;
11539;SDS011;5826;54.756;9.192;2023-11-21T05:28:11;4.32;;;3.58;;
11539;SDS011;5826;54.756;9.192;2023-11-21T05:30:37;5.15;;;3.92;;
11539;SDS011;5826;54.756;9.192;2023-11-21T05:33:04;3.83;;;3.40;;
11539;SDS011;5826;54.756;9.192;2023-11-21T05:35:29;4.55;;;3.80;;
11539;SDS011;5826;54.756;9.192;2023-11-21T05:37:55;3.97;;;3.30;;
11539;SDS011;5826;54.756;9.192;2023-11-21T05:40:21;3.83;;;3.10;;
11539;SDS011;5826;54.756;9.192;2023-11-21T05:42:47;4.38;;;3.00;;
11539;SDS011;5826;54.756;9.192;2023-11-21T05:45:13;6.13;;;4.03;;
11539;SDS011;5826;54.756;9.192;2023-11-21T05:47:43;4.10;;;3.38;;
11539;SDS011;5826;54.756;9.192;2023-11-21T05:50:11;5.03;;;3.95;;
11539;SDS011;5826;54.756;9.192;2023-11-21T05:52:39;3.10;;;2.80;;
11539;SDS011;5826;54.756;9.192;2023-11-21T05:55:06;6.10;;;3.83;;
11539;SDS011;5826;54.756;9.192;2023-11-21T05:57:36;5.38;;;4.25;;
11539;SDS011;5826;54.756;9.192;2023-11-21T06:00:13;3.38;;;3.08;;
11539;SDS011;5826;54.756;9.192;2023-11-21T06:02:39;5.38;;;4.55;;
11539;SDS011;5826;54.756;9.192;2023-11-21T06:05:08;4.63;;;3.30;;
11539;SDS011;5826;54.756;9.192;2023-11-21T06:07:34;3.72;;;3.13;;
11539;SDS011;5826;54.756;9.192;2023-11-21T06:10:00;4.50;;;3.80;;
11539;SDS011;5826;54.756;9.192;2023-11-21T06:12:27;4.85;;;3.60;;
11539;SDS011;5826;54.756;9.192;2023-11-21T06:14:53;3.88;;;3.33;;
11539;SDS011;5826;54.756;9.192;2023-11-21T06:17:19;4.95;;;3.85;;
11539;SDS011;5826;54.756;9.192;2023-11-21T06:19:44;3.33;;;3.03;;
11539;SDS011;5826;54.756;9.192;2023-11-21T06:22:11;3.28;;;2.97;;
11539;SDS011;5826;54.756;9.192;2023-11-21T06:24:36;5.10;;;3.70;;
11539;SDS011;5826;54.756;9.192;2023-11-21T06:27:03;5.68;;;4.05;;
11539;SDS011;5826;54.756;9.192;2023-11-21T06:29:29;5.45;;;4.03;;
11539;SDS011;5826;54.756;9.192;2023-11-21T06:31:55;5.78;;;4.53;;
11539;SDS011;5826;54.756;9.192;2023-11-21T06:34:21;4.90;;;3.97;;
11539;SDS011;5826;54.756;9.192;2023-11-21T06:36:46;5.03;;;3.70;;
11539;SDS011;5826;54.756;9.192;2023-11-21T06:39:12;7.80;;;3.90;;
11539;SDS011;5826;54.756;9.192;2023-11-21T06:41:40;4.63;;;4.15;;
11539;SDS011;5826;54.756;9.192;2023-11-21T06:44:05;3.88;;;3.47;;
11539;SDS011;5826;54.756;9.192;2023-11-21T06:46:31;4.00;;;3.50;;
11539;SDS011;5826;54.756;9.192;2023-11-21T06:48:56;4.68;;;3.80;;
11539;SDS011;5826;54.756;9.192;2023-11-21T06:51:22;4.55;;;3.65;;
11539;SDS011;5826;54.756;9.192;2023-11-21T06:53:47;4.63;;;3.90;;
11539;SDS011;5826;54.756;9.192;2023-11-21T06:56:16;4.00;;;3.50;;
11539;SDS011;5826;54.756;9.192;2023-11-21T06:58:43;4.30;;;3.65;;
11539;SDS011;5826;54.756;9.192;2023-11-21T07:01:10;3.92;;;3.53;;
11539;SDS011;5826;54.756;9.192;2023-11-21T07:03:36;6.75;;;3.97;;
11539;SDS011;5826;54.756;9.192;2023-11-21T07:06:02;4.95;;;3.60;;
11539;SDS011;5826;54.756;9.192;2023-11-21T07:08:28;4.90;;;3.92;;
11539;SDS011;5826;54.756;9.192;2023-11-21T07:10:53;3.40;;;3.10;;
11539;SDS011;5826;54.756;9.192;2023-11-21T07:13:19;4.15;;;3.75;;
11539;SDS011;5826;54.756;9.192;2023-11-21T07:15:44;4.07;;;3.67;;
11539;SDS011;5826;54.756;9.192;2023-11-21T07:18:10;5.80;;;3.75;;
11539;SDS011;5826;54.756;9.192;2023-11-21T07:20:36;4.10;;;3.00;;
11539;SDS011;5826;54.756;9.192;2023-11-21T07:23:02;5.72;;;4.15;;
11539;SDS011;5826;54.756;9.192;2023-11-21T07:25:28;5.07;;;4.22;;
11539;SDS011;5826;54.756;9.192;2023-11-21T07:27:54;4.63;;;3.85;;
11539;SDS011;5826;54.756;9.192;2023-11-21T07:30:20;4.93;;;3.67;;
11539;SDS011;5826;54.756;9.192;2023-11-21T07:32:47;4.82;;;4.10;;
11539;SDS011;5826;54.756;9.192;2023-11-21T07:35:13;5.38;;;4.57;;
11539;SDS011;5826;54.756;9.192;2023-11-21T07:37:39;4.25;;;3.40;;
11539;SDS011;5826;54.756;9.192;2023-11-21T07:40:04;3.33;;;2.92;;
11539;SDS011;5826;54.756;9.192;2023-11-21T07:42:33;5.35;;;4.00;;
11539;SDS011;5826;54.756;9.192;2023-11-21T07:44:59;3.97;;;3.30;;
11539;SDS011;5826;54.756;9.192;2023-11-21T07:47:24;4.35;;;3.00;;
11539;SDS011;5826;54.756;9.192;2023-11-21T07:49:52;4.97;;;3.58;;
11539;SDS011;5826;54.756;9.192;2023-11-21T07:52:18;4.95;;;3.80;;
11539;SDS011;5826;54.756;9.192;2023-11-21T07:54:46;5.25;;;3.92;;
11539;SDS011;5826;54.756;9.192;2023-11-21T07:57:11;5.05;;;3.60;;
11539;SDS011;5826;54.756;9.192;2023-11-21T07:59:38;3.80;;;3.25;;
11539;SDS011;5826;54.756;9.192;2023-11-21T08:02:05;7.32;;;4.53;;
11539;SDS011;5826;54.756;9.192;2023-11-21T08:04:31;5.88;;;3.95;;
11539;SDS011;5826;54.756;9.192;2023-11-21T08:06:57;5.00;;;3.92;;
11539;SDS011;5826;54.756;9.192;2023-11-21T08:09:22;4.72;;;3.65;;
11539;SDS011;5826;54.756;9.192;2023-11-21T08:11:48;5.60;;;4.25;;
11539;SDS011;5826;54.756;9.192;2023-11-21T08:14:14;4.72;;;3.35;;
11539;SDS011;5826;54.756;9.192;2023-11-21T08:16:40;7.20;;;4.97;;
11539;SDS011;5826;54.756;9.192;2023-11-21T08:19:06;4.53;;;3.50;;
11539;SDS011;5826;54.756;9.192;2023-11-21T08:21:31;3.95;;;3.40;;
11539;SDS011;5826;54.756;9.192;2023-11-21T08:23:57;5.57;;;5.07;;
11539;SDS011;5826;54.756;9.192;2023-11-21T08:26:22;4.65;;;3.83;;
11539;SDS011;5826;54.756;9.192;2023-11-21T08:28:48;5.32;;;4.50;;
11539;SDS011;5826;54.756;9.192;2023-11-21T08:31:14;3.90;;;3.50;;
11539;SDS011;5826;54.756;9.192;2023-11-21T08:33:39;5.72;;;4.80;;
11539;SDS011;5826;54.756;9.192;2023-11-21T08:36:08;5.68;;;4.15;;
11539;SDS011;5826;54.756;9.192;2023-11-21T08:38:35;4.30;;;3.90;;
11539;SDS011;5826;54.756;9.192;2023-11-21T08:41:06;4.45;;;3.80;;
11539;SDS011;5826;54.756;9.192;2023-11-21T08:43:33;3.97;;;3.25;;
11539;SDS011;5826;54.756;9.192;2023-11-21T08:46:05;8.05;;;5.60;;
11539;SDS011;5826;54.756;9.192;2023-11-21T08:48:31;3.97;;;3.40;;
11539;SDS011;5826;54.756;9.192;2023-11-21T08:50:56;4.45;;;3.90;;
11539;SDS011;5826;54.756;9.192;2023-11-21T08:53:22;4.70;;;3.47;;
11539;SDS011;5826;54.756;9.192;2023-11-21T08:55:47;5.38;;;4.10;;
11539;SDS011;5826;54.756;9.192;2023-11-21T08:58:14;4.28;;;3.88;;
11539;SDS011;5826;54.756;9.192;2023-11-21T09:00:40;6.20;;;4.25;;
11539;SDS011;5826;54.756;9.192;2023-11-21T09:03:07;5.40;;;4.43;;
11539;SDS011;5826;54.756;9.192;2023-11-21T09:05:39;4.15;;;3.63;;
11539;SDS011;5826;54.756;9.192;2023-11-21T09:08:05;4.68;;;4.07;;
11539;SDS011;5826;54.756;9.192;2023-11-21T09:10:31;4.15;;;3.75;;
11539;SDS011;5826;54.756;9.192;2023-11-21T09:13:00;6.50;;;4.70;;
11539;SDS011;5826;54.756;9.192;2023-11-21T09:15:26;6.03;;;4.68;;
11539;SDS011;5826;54.756;9.192;2023-11-21T09:17:52;5.78;;;4.70;;
11539;SDS011;5826;54.756;9.192;2023-11-21T09:20:18;4.90;;;4.05;;
11539;SDS011;5826;54.756;9.192;2023-11-21T09:22:47;4.25;;;3.55;;
11539;SDS011;5826;54.756;9.192;2023-11-21T09:25:13;4.75;;;4.00;;
11539;SDS011;5826;54.756;9.192;2023-11-21T09:27:39;4.47;;;3.80;;
11539;SDS011;5826;54.756;9.192;2023-11-21T09:30:05;3.85;;;3.45;;
11539;SDS011;5826;54.756;9.192;2023-11-21T09:32:34;5.93;;;4.70;;
11539;SDS011;5826;54.756;9.192;2023-11-21T09:35:02;4.88;;;4.38;;
11539;SDS011;5826;54.756;9.192;2023-11-21T09:37:28;6.35;;;4.70;;
11539;SDS011;5826;54.756;9.192;2023-11-21T09:39:53;4.78;;;4.22;;
11539;SDS011;5826;54.756;9.192;2023-11-21T09:42:23;5.38;;;4.82;;
11539;SDS011;5826;54.756;9.192;2023-11-21T09:46:04;5.75;;;3.88;;
11539;SDS011;5826;54.756;9.192;2023-11-21T09:48:03;4.50;;;3.70;;
11539;SDS011;5826;54.756;9.192;2023-11-21T09:50:30;4.20;;;3.80;;
11539;SDS011;5826;54.756;9.192;2023-11-21T09:53:02;4.90;;;4.40;;
11539;SDS011;5826;54.756;9.192;2023-11-21T09:55:34;4.15;;;3.75;;
11539;SDS011;5826;54.756;9.192;2023-11-21T09:58:04;4.15;;;3.75;;
11539;SDS011;5826;54.756;9.192;2023-11-21T10:00:32;4.22;;;3.67;;
11539;SDS011;5826;54.756;9.192;2023-11-21T10:02:58;4.43;;;4.00;;
11539;SDS011;5826;54.756;9.192;2023-11-21T10:05:25;4.07;;;3.67;;
11539;SDS011;5826;54.756;9.192;2023-11-21T10:07:50;4.43;;;3.30;;
11539;SDS011;5826;54.756;9.192;2023-11-21T10:10:19;4.45;;;4.03;;
11539;SDS011;5826;54.756;9.192;2023-11-21T10:12:50;5.35;;;4.25;;
11539;SDS011;5826;54.756;9.192;2023-11-21T10:15:18;4.20;;;3.78;;
11539;SDS011;5826;54.756;9.192;2023-11-21T10:17:46;4.20;;;3.28;;
11539;SDS011;5826;54.756;9.192;2023-11-21T10:20:18;4.82;;;4.05;;
11539;SDS011;5826;54.756;9.192;2023-11-21T10:22:50;3.80;;;3.40;;
11539;SDS011;5826;54.756;9.192;2023-11-21T10:25:16;4.07;;;3.67;;
11539;SDS011;5826;54.756;9.192;2023-11-21T10:27:43;3.70;;;3.28;;
11539;SDS011;5826;54.756;9.192;2023-11-21T10:30:12;5.05;;;3.80;;
11539;SDS011;5826;54.756;9.192;2023-11-21T10:32:38;4.95;;;3.50;;
11539;SDS011;5826;54.756;9.192;2023-11-21T10:35:05;3.90;;;3.30;;
11539;SDS011;5826;54.756;9.192;2023-11-21T10:37:35;3.85;;;3.08;;
11539;SDS011;5826;54.756;9.192;2023-11-21T10:40:05;3.20;;;2.90;;
11539;SDS011;5826;54.756;9.192;2023-11-21T10:42:39;4.13;;;3.30;;
11539;SDS011;5826;54.756;9.192;2023-11-21T10:45:05;3.95;;;3.55;;
11539;SDS011;5826;54.756;9.192;2023-11-21T10:47:38;4.13;;;3.47;;
11539;SDS011;5826;54.756;9.192;2023-11-21T10:50:07;3.72;;;3.05;;
11539;SDS011;5826;54.756;9.192;2023-11-21T10:52:39;4.18;;;3.28;;
11539;SDS011;5826;54.756;9.192;2023-11-21T10:55:15;5.35;;;3.67;;
11539;SDS011;5826;54.756;9.192;2023-11-21T10:57:43;7.45;;;6.47;;
11539;SDS011;5826;54.756;9.192;2023-11-21T11:00:13;9.02;;;6.68;;
11539;SDS011;5826;54.756;9.192;2023-11-21T11:02:40;8.55;;;7.57;;
11539;SDS011;5826;54.756;9.192;2023-11-21T11:05:06;10.70;;;9.60;;
11539;SDS011;5826;54.756;9.192;2023-11-21T11:07:36;7.10;;;6.40;;
11539;SDS011;5826;54.756;9.192;2023-11-21T11:10:03;6.53;;;5.82;;
11539;SDS011;5826;54.756;9.192;2023-11-21T11:12:29;6.20;;;5.60;;
11539;SDS011;5826;54.756;9.192;2023-11-21T11:14:55;7.80;;;7.10;;
11539;SDS011;5826;54.756;9.192;2023-11-21T11:17:22;6.35;;;5.75;;
11539;SDS011;5826;54.756;9.192;2023-11-21T11:19:48;7.90;;;6.97;;
11539;SDS011;5826;54.756;9.192;2023-11-21T11:22:31;7.60;;;6.45;;
11539;SDS011;5826;54.756;9.192;2023-11-21T11:28:03;9.85;;;8.85;;
11539;SDS011;5826;54.756;9.192;2023-11-21T11:36:00;6.97;;;6.35;;
11539;SDS011;5826;54.756;9.192;2023-11-21T11:38:31;6.82;;;6.22;;
11539;SDS011;5826;54.756;9.192;2023-11-21T11:41:03;6.22;;;5.63;;
11539;SDS011;5826;54.756;9.192;2023-11-21T11:43:30;5.18;;;4.72;;
11539;SDS011;5826;54.756;9.192;2023-11-21T11:45:58;5.35;;;4.85;;
11539;SDS011;5826;54.756;9.192;2023-11-21T11:48:24;6.70;;;5.70;;
11539;SDS011;5826;54.756;9.192;2023-11-21T11:51:07;5.30;;;4.40;;
11539;SDS011;5826;54.756;9.192;2023-11-21T11:53:40;4.32;;;3.88;;
11539;SDS011;5826;54.756;9.192;2023-11-21T11:56:26;4.72;;;4.05;;
11539;SDS011;5826;54.756;9.192;2023-11-21T11:59:03;3.90;;;3.47;;
11539;SDS011;5826;54.756;9.192;2023-11-21T12:01:31;3.83;;;3.50;;
11539;SDS011;5826;54.756;9.192;2023-11-21T12:06:39;3.75;;;3.25;;
11539;SDS011;5826;54.756;9.192;2023-11-21T12:09:06;3.50;;;3.20;;
11539;SDS011;5826;54.756;9.192;2023-11-21T12:11:32;3.90;;;3.50;;
11539;SDS011;5826;54.756;9.192;2023-11-21T12:14:00;3.80;;;3.42;;
11539;SDS011;5826;54.756;9.192;2023-11-21T12:16:27;3.70;;;3.20;;
11539;SDS011;5826;54.756;9.192;2023-11-21T12:18:52;5.03;;;4.07;;
11539;SDS011;5826;54.756;9.192;2023-11-21T12:21:19;4.22;;;3.40;;
11539;SDS011;5826;54.756;9.192;2023-11-21T12:23:45;4.55;;;3.95;;
11539;SDS011;5826;54.756;9.192;2023-11-21T12:26:12;7.80;;;6.90;;
11539;SDS011;5826;54.756;9.192;2023-11-21T12:28:38;5.85;;;5.10;;
11539;SDS011;5826;54.756;9.192;2023-11-21T12:31:04;7.05;;;5.30;;
11539;SDS011;5826;54.756;9.192;2023-11-21T12:33:31;5.63;;;4.57;;
11539;SDS011;5826;54.756;9.192;2023-11-21T12:36:00;4.40;;;3.55;;
11539;SDS011;5826;54.756;9.192;2023-11-21T12:38:25;4.78;;;4.13;;
11539;SDS011;5826;54.756;9.192;2023-11-21T12:40:59;4.65;;;3.78;;
11539;SDS011;5826;54.756;9.192;2023-11-21T12:43:25;4.25;;;3.70;;
11539;SDS011;5826;54.756;9.192;2023-11-21T12:45:50;4.68;;;4.25;;
11539;SDS011;5826;54.756;9.192;2023-11-21T12:48:29;4.93;;;3.70;;
11539;SDS011;5826;54.756;9.192;2023-11-21T12:50:56;4.72;;;3.60;;
11539;SDS011;5826;54.756;9.192;2023-11-21T12:53:25;3.97;;;3.22;;
11539;SDS011;5826;54.756;9.192;2023-11-21T12:55:50;5.75;;;5.25;;
11539;SDS011;5826;54.756;9.192;2023-11-21T12:58:16;4.32;;;3.72;;
11539;SDS011;5826;54.756;9.192;2023-11-21T13:00:46;3.30;;;3.00;;
11539;SDS011;5826;54.756;9.192;2023-11-21T13:03:13;3.33;;;3.08;;
11539;SDS011;5826;54.756;9.192;2023-11-21T13:05:50;3.35;;;3.05;;
11539;SDS011;5826;54.756;9.192;2023-11-21T13:08:18;8.13;;;7.32;;
11539;SDS011;5826;54.756;9.192;2023-11-21T13:10:46;16.05;;;14.35;;
11539;SDS011;5826;54.756;9.192;2023-11-21T13:13:14;11.93;;;10.85;;
11539;SDS011;5826;54.756;9.192;2023-11-21T13:15:47;9.65;;;8.77;;
11539;SDS011;5826;54.756;9.192;2023-11-21T13:18:13;7.40;;;6.80;;
11539;SDS011;5826;54.756;9.192;2023-11-21T13:20:39;5.57;;;5.00;;
11539;SDS011;5826;54.756;9.192;2023-11-21T13:23:09;5.90;;;5.30;;
11539;SDS011;5826;54.756;9.192;2023-11-21T13:25:41;5.00;;;4.43;;
11539;SDS011;5826;54.756;9.192;2023-11-21T13:28:07;4.25;;;3.88;;
11539;SDS011;5826;54.756;9.192;2023-11-21T13:30:34;5.00;;;4.50;;
11539;SDS011;5826;54.756;9.192;2023-11-21T13:33:03;4.68;;;4.15;;
11539;SDS011;5826;54.756;9.192;2023-11-21T13:35:34;4.32;;;3.60;;
11539;SDS011;5826;54.756;9.192;2023-11-21T13:38:10;4.13;;;3.72;;
11539;SDS011;5826;54.756;9.192;2023-11-21T13:40:46;4.20;;;3.80;;
11539;SDS011;5826;54.756;9.192;2023-11-21T13:43:14;4.15;;;3.33;;
11539;SDS011;5826;54.756;9.192;2023-11-21T13:45:43;5.10;;;4.60;;
11539;SDS011;5826;54.756;9.192;2023-11-21T13:48:10;4.93;;;3.60;;
11539;SDS011;5826;54.756;9.192;2023-11-21T13:50:41;4.18;;;3.78;;
11539;SDS011;5826;54.756;9.192;2023-11-21T13:53:13;3.92;;;3.53;;
11539;SDS011;5826;54.756;9.192;2023-11-21T13:55:51;7.78;;;6.95;;
11539;SDS011;5826;54.756;9.192;2023-11-21T13:58:22;62.72;;;56.05;;
11539;SDS011;5826;54.756;9.192;2023-11-21T14:01:07;39.35;;;34.03;;
11539;SDS011;5826;54.756;9.192;2023-11-21T14:03:49;26.00;;;23.20;;
11539;SDS011;5826;54.756;9.192;2023-11-21T14:06:21;19.70;;;17.02;;
11539;SDS011;5826;54.756;9.192;2023-11-21T14:08:52;12.57;;;11.23;;
11539;SDS011;5826;54.756;9.192;2023-11-21T14:11:21;12.55;;;11.35;;
11539;SDS011;5826;54.756;9.192;2023-11-21T14:13:47;10.48;;;9.38;;
11539;SDS011;5826;54.756;9.192;2023-11-21T14:16:13;12.43;;;11.27;;
11539;SDS011;5826;54.756;9.192;2023-11-21T14:18:41;7.13;;;6.50;;
11539;SDS011;5826;54.756;9.192;2023-11-21T14:21:18;7.07;;;5.70;;
11539;SDS011;5826;54.756;9.192;2023-11-21T14:23:43;4.90;;;4.40;;
11539;SDS011;5826;54.756;9.192;2023-11-21T14:26:10;4.35;;;3.88;;
11539;SDS011;5826;54.756;9.192;2023-11-21T14:28:39;5.38;;;4.45;;
11539;SDS011;5826;54.756;9.192;2023-11-21T14:31:06;9.95;;;8.93;;
11539;SDS011;5826;54.756;9.192;2023-11-21T14:33:32;16.05;;;14.35;;
11539;SDS011;5826;54.756;9.192;2023-11-21T14:35:58;13.52;;;11.57;;
11539;SDS011;5826;54.756;9.192;2023-11-21T14:38:23;10.07;;;9.18;;
11539;SDS011;5826;54.756;9.192;2023-11-21T14:40:49;8.82;;;7.95;;
11539;SDS011;5826;54.756;9.192;2023-11-21T14:43:15;6.60;;;5.88;;
11539;SDS011;5826;54.756;9.192;2023-11-21T14:45:41;5.97;;;5.40;;
11539;SDS011;5826;54.756;9.192;2023-11-21T14:48:07;5.53;;;4.93;;
11539;SDS011;5826;54.756;9.192;2023-11-21T14:50:41;5.15;;;4.65;;
11539;SDS011;5826;54.756;9.192;2023-11-21T14:53:07;4.90;;;4.18;;
11539;SDS011;5826;54.756;9.192;2023-11-21T14:55:34;5.15;;;4.55;;
11539;SDS011;5826;54.756;9.192;2023-11-21T14:58:14;4.30;;;3.85;;
11539;SDS011;5826;54.756;9.192;2023-11-21T15:00:46;3.80;;;3.22;;
11539;SDS011;5826;54.756;9.192;2023-11-21T15:03:12;3.85;;;3.45;;
11539;SDS011;5826;54.756;9.192;2023-11-21T15:05:56;3.28;;;2.70;;
11539;SDS011;5826;54.756;9.192;2023-11-21T15:08:22;3.85;;;3.00;;
11539;SDS011;5826;54.756;9.192;2023-11-21T15:10:56;3.47;;;2.60;;
11539;SDS011;5826;54.756;9.192;2023-11-21T15:13:22;4.00;;;2.95;;